Keene Valley, New York
Current Conditions -  °F | °C
As of 8:51 AM on Monday 20 Oct 2014 (Local Time) from KSLK Reporting Station
Overcast Overcast  
Wind Chill: 26°   Ceiling: 10000
Heat Index: 32°   Visibility: 10mi
Dew Point: 29°   Wind: 6mph
Humidity: 88%   Direction: 210°SSW
Pressure: 29.93"   Gusts: NA
Location:  44.19°N, 73.79°W
Report Text: KSLK 201251Z AUTO 21005KT 10SM FEW020 FEW075 OVC100 00/M02 A2993 RMK AO2 SLP153 T00001017
Loading
Personal Weather Stations






























Interactive Weather Map
Tropical Storm Tracking
New forecast layout! Learn more

10-Day Weather Forecast

Advertisements
Track Severe Weather on mobile